sensor_id;sensor_type;location;lat;lon;timestamp;temperature;humidity
17495;DHT22;8864;51.970;4.614;2023-02-19T00:02:07;15.70;80.00
17495;DHT22;8864;51.970;4.614;2023-02-19T00:04:35;15.70;79.90
17495;DHT22;8864;51.970;4.614;2023-02-19T00:07:02;15.70;79.90
17495;DHT22;8864;51.970;4.614;2023-02-19T00:09:32;15.70;79.90
17495;DHT22;8864;51.970;4.614;2023-02-19T00:12:02;15.70;79.90
17495;DHT22;8864;51.970;4.614;2023-02-19T00:14:30;15.70;80.00
17495;DHT22;8864;51.970;4.614;2023-02-19T00:16:59;15.70;80.00
17495;DHT22;8864;51.970;4.614;2023-02-19T00:19:31;15.70;80.00
17495;DHT22;8864;51.970;4.614;2023-02-19T00:21:58;15.70;80.30
17495;DHT22;8864;51.970;4.614;2023-02-19T00:24:29;15.70;80.30
17495;DHT22;8864;51.970;4.614;2023-02-19T00:27:03;15.70;80.30
17495;DHT22;8864;51.970;4.614;2023-02-19T00:29:30;15.70;80.20
17495;DHT22;8864;51.970;4.614;2023-02-19T00:31:57;15.70;80.20
17495;DHT22;8864;51.970;4.614;2023-02-19T00:34:25;15.70;80.20
17495;DHT22;8864;51.970;4.614;2023-02-19T00:36:58;15.70;80.20
17495;DHT22;8864;51.970;4.614;2023-02-19T00:39:26;15.70;80.10
17495;DHT22;8864;51.970;4.614;2023-02-19T00:41:53;15.70;80.10
17495;DHT22;8864;51.970;4.614;2023-02-19T00:44:25;15.70;80.20
17495;DHT22;8864;51.970;4.614;2023-02-19T00:46:53;15.70;80.30
17495;DHT22;8864;51.970;4.614;2023-02-19T00:49:22;15.60;80.20
17495;DHT22;8864;51.970;4.614;2023-02-19T00:51:52;15.70;80.30
17495;DHT22;8864;51.970;4.614;2023-02-19T00:54:20;15.70;80.30
17495;DHT22;8864;51.970;4.614;2023-02-19T00:56:57;15.60;80.20
17495;DHT22;8864;51.970;4.614;2023-02-19T00:59:25;15.70;80.30
17495;DHT22;8864;51.970;4.614;2023-02-19T01:01:52;15.60;80.30
17495;DHT22;8864;51.970;4.614;2023-02-19T01:04:22;15.70;80.30
17495;DHT22;8864;51.970;4.614;2023-02-19T01:06:50;15.70;80.30
17495;DHT22;8864;51.970;4.614;2023-02-19T01:09:17;15.70;80.30
17495;DHT22;8864;51.970;4.614;2023-02-19T01:11:48;15.60;80.40
17495;DHT22;8864;51.970;4.614;2023-02-19T01:14:15;15.60;80.50
17495;DHT22;8864;51.970;4.614;2023-02-19T01:16:48;15.60;80.50
17495;DHT22;8864;51.970;4.614;2023-02-19T01:19:15;15.70;80.50
17495;DHT22;8864;51.970;4.614;2023-02-19T01:21:43;15.70;80.60
17495;DHT22;8864;51.970;4.614;2023-02-19T01:24:12;15.60;80.40
17495;DHT22;8864;51.970;4.614;2023-02-19T01:26:46;15.70;80.60
17495;DHT22;8864;51.970;4.614;2023-02-19T01:29:13;15.60;80.50
17495;DHT22;8864;51.970;4.614;2023-02-19T01:31:46;15.70;80.70
17495;DHT22;8864;51.970;4.614;2023-02-19T01:34:19;15.60;80.60
17495;DHT22;8864;51.970;4.614;2023-02-19T01:36:48;15.60;80.60
17495;DHT22;8864;51.970;4.614;2023-02-19T01:39:16;15.60;80.60
17495;DHT22;8864;51.970;4.614;2023-02-19T01:41:47;15.60;80.60
17495;DHT22;8864;51.970;4.614;2023-02-19T01:47:22;15.60;80.60
17495;DHT22;8864;51.970;4.614;2023-02-19T01:49:51;15.60;80.60
17495;DHT22;8864;51.970;4.614;2023-02-19T01:52:25;15.60;80.60
17495;DHT22;8864;51.970;4.614;2023-02-19T01:54:59;15.60;80.60
17495;DHT22;8864;51.970;4.614;2023-02-19T01:57:32;15.60;80.70
17495;DHT22;8864;51.970;4.614;2023-02-19T02:00:03;15.60;80.60
17495;DHT22;8864;51.970;4.614;2023-02-19T02:02:38;15.60;80.70
17495;DHT22;8864;51.970;4.614;2023-02-19T02:05:12;15.60;80.70
17495;DHT22;8864;51.970;4.614;2023-02-19T02:07:46;15.60;80.70
17495;DHT22;8864;51.970;4.614;2023-02-19T02:10:31;15.60;80.70
17495;DHT22;8864;51.970;4.614;2023-02-19T02:13:02;15.60;80.70
17495;DHT22;8864;51.970;4.614;2023-02-19T02:15:41;15.60;80.70
17495;DHT22;8864;51.970;4.614;2023-02-19T02:18:21;15.60;80.70
17495;DHT22;8864;51.970;4.614;2023-02-19T02:21:34;15.60;80.70
17495;DHT22;8864;51.970;4.614;2023-02-19T02:27:23;15.60;80.70
17495;DHT22;8864;51.970;4.614;2023-02-19T02:30:11;15.60;80.70
17495;DHT22;8864;51.970;4.614;2023-02-19T02:32:53;15.60;81.50
17495;DHT22;8864;51.970;4.614;2023-02-19T02:35:27;15.60;80.70
17495;DHT22;8864;51.970;4.614;2023-02-19T02:37:58;15.60;80.80
17495;DHT22;8864;51.970;4.614;2023-02-19T02:40:26;15.60;80.70
17495;DHT22;8864;51.970;4.614;2023-02-19T02:42:57;15.60;80.80
17495;DHT22;8864;51.970;4.614;2023-02-19T02:45:29;15.50;80.70
17495;DHT22;8864;51.970;4.614;2023-02-19T02:48:13;15.60;80.70
17495;DHT22;8864;51.970;4.614;2023-02-19T02:50:44;15.50;80.70
17495;DHT22;8864;51.970;4.614;2023-02-19T02:53:18;15.60;80.90
17495;DHT22;8864;51.970;4.614;2023-02-19T02:56:04;15.50;80.70
17495;DHT22;8864;51.970;4.614;2023-02-19T02:58:33;15.50;80.80
17495;DHT22;8864;51.970;4.614;2023-02-19T03:01:08;15.50;81.10
17495;DHT22;8864;51.970;4.614;2023-02-19T03:03:57;15.50;81.10
17495;DHT22;8864;51.970;4.614;2023-02-19T03:06:30;15.60;81.10
17495;DHT22;8864;51.970;4.614;2023-02-19T03:09:04;15.60;81.10
17495;DHT22;8864;51.970;4.614;2023-02-19T03:11:36;15.50;81.00
17495;DHT22;8864;51.970;4.614;2023-02-19T03:14:26;15.60;81.00
17495;DHT22;8864;51.970;4.614;2023-02-19T03:17:16;15.50;81.10
17495;DHT22;8864;51.970;4.614;2023-02-19T03:20:04;15.50;81.00
17495;DHT22;8864;51.970;4.614;2023-02-19T03:22:40;15.50;81.10
17495;DHT22;8864;51.970;4.614;2023-02-19T03:25:12;15.50;81.10
17495;DHT22;8864;51.970;4.614;2023-02-19T03:27:59;15.50;81.10
17495;DHT22;8864;51.970;4.614;2023-02-19T03:30:33;15.50;81.10
17495;DHT22;8864;51.970;4.614;2023-02-19T03:33:12;15.50;81.00
17495;DHT22;8864;51.970;4.614;2023-02-19T03:35:46;15.50;81.10
17495;DHT22;8864;51.970;4.614;2023-02-19T03:38:18;15.50;81.00
17495;DHT22;8864;51.970;4.614;2023-02-19T03:41:03;15.50;81.10
17495;DHT22;8864;51.970;4.614;2023-02-19T03:43:40;15.50;81.10
17495;DHT22;8864;51.970;4.614;2023-02-19T03:46:14;15.50;81.20
17495;DHT22;8864;51.970;4.614;2023-02-19T03:48:52;15.50;81.20
17495;DHT22;8864;51.970;4.614;2023-02-19T03:51:29;15.50;81.20
17495;DHT22;8864;51.970;4.614;2023-02-19T03:54:08;15.50;81.20
17495;DHT22;8864;51.970;4.614;2023-02-19T03:56:41;15.50;81.20
17495;DHT22;8864;51.970;4.614;2023-02-19T03:59:19;15.50;81.20
17495;DHT22;8864;51.970;4.614;2023-02-19T04:01:53;15.50;81.30
17495;DHT22;8864;51.970;4.614;2023-02-19T04:04:26;15.50;81.20
17495;DHT22;8864;51.970;4.614;2023-02-19T04:06:57;15.50;81.20
17495;DHT22;8864;51.970;4.614;2023-02-19T04:09:26;15.50;81.20
17495;DHT22;8864;51.970;4.614;2023-02-19T04:12:03;15.50;81.20
17495;DHT22;8864;51.970;4.614;2023-02-19T04:14:33;15.50;81.20
17495;DHT22;8864;51.970;4.614;2023-02-19T04:17:03;15.50;81.50
17495;DHT22;8864;51.970;4.614;2023-02-19T04:19:44;15.50;81.50
17495;DHT22;8864;51.970;4.614;2023-02-19T04:22:15;15.50;81.40
17495;DHT22;8864;51.970;4.614;2023-02-19T04:24:48;15.50;81.30
17495;DHT22;8864;51.970;4.614;2023-02-19T04:27:18;15.50;81.40
17495;DHT22;8864;51.970;4.614;2023-02-19T04:29:46;15.50;82.20
17495;DHT22;8864;51.970;4.614;2023-02-19T04:32:13;15.50;81.30
17495;DHT22;8864;51.970;4.614;2023-02-19T04:34:42;15.50;81.40
17495;DHT22;8864;51.970;4.614;2023-02-19T04:37:09;15.50;81.40
17495;DHT22;8864;51.970;4.614;2023-02-19T04:39:36;15.50;81.40
17495;DHT22;8864;51.970;4.614;2023-02-19T04:42:04;15.50;81.40
17495;DHT22;8864;51.970;4.614;2023-02-19T04:44:45;15.50;81.50
17495;DHT22;8864;51.970;4.614;2023-02-19T04:47:13;15.50;81.40
17495;DHT22;8864;51.970;4.614;2023-02-19T04:49:43;15.50;81.40
17495;DHT22;8864;51.970;4.614;2023-02-19T04:52:11;15.50;81.50
17495;DHT22;8864;51.970;4.614;2023-02-19T04:54:39;15.50;81.50
17495;DHT22;8864;51.970;4.614;2023-02-19T04:57:06;15.50;81.50
17495;DHT22;8864;51.970;4.614;2023-02-19T04:59:36;15.40;81.50
17495;DHT22;8864;51.970;4.614;2023-02-19T05:02:06;15.50;81.60
17495;DHT22;8864;51.970;4.614;2023-02-19T05:04:36;15.50;82.40
17495;DHT22;8864;51.970;4.614;2023-02-19T05:07:05;15.50;81.60
17495;DHT22;8864;51.970;4.614;2023-02-19T05:09:32;15.40;81.50
17495;DHT22;8864;51.970;4.614;2023-02-19T05:12:01;15.50;81.60
17495;DHT22;8864;51.970;4.614;2023-02-19T05:14:28;15.50;81.50
17495;DHT22;8864;51.970;4.614;2023-02-19T05:16:55;15.50;81.50
17495;DHT22;8864;51.970;4.614;2023-02-19T05:19:22;15.50;81.50
17495;DHT22;8864;51.970;4.614;2023-02-19T05:21:51;15.50;81.60
17495;DHT22;8864;51.970;4.614;2023-02-19T05:24:22;15.50;81.50
17495;DHT22;8864;51.970;4.614;2023-02-19T05:26:52;15.50;81.50
17495;DHT22;8864;51.970;4.614;2023-02-19T05:29:20;15.50;81.50
17495;DHT22;8864;51.970;4.614;2023-02-19T05:31:47;15.50;81.60
17495;DHT22;8864;51.970;4.614;2023-02-19T05:34:14;15.50;81.50
17495;DHT22;8864;51.970;4.614;2023-02-19T05:36:46;15.40;81.50
17495;DHT22;8864;51.970;4.614;2023-02-19T05:39:16;15.40;81.50
17495;DHT22;8864;51.970;4.614;2023-02-19T05:41:47;15.50;81.50
17495;DHT22;8864;51.970;4.614;2023-02-19T05:44:14;15.40;81.50
17495;DHT22;8864;51.970;4.614;2023-02-19T05:46:44;15.50;81.60
17495;DHT22;8864;51.970;4.614;2023-02-19T05:49:11;15.40;81.50
17495;DHT22;8864;51.970;4.614;2023-02-19T05:51:38;15.50;81.50
17495;DHT22;8864;51.970;4.614;2023-02-19T05:54:05;15.40;81.50
17495;DHT22;8864;51.970;4.614;2023-02-19T05:56:33;15.50;81.60
17495;DHT22;8864;51.970;4.614;2023-02-19T05:59:14;15.40;81.50
17495;DHT22;8864;51.970;4.614;2023-02-19T06:01:48;15.40;81.60
17495;DHT22;8864;51.970;4.614;2023-02-19T06:04:19;15.40;81.60
17495;DHT22;8864;51.970;4.614;2023-02-19T06:06:47;15.40;81.60
17495;DHT22;8864;51.970;4.614;2023-02-19T06:09:16;15.40;81.60
17495;DHT22;8864;51.970;4.614;2023-02-19T06:11:43;15.40;81.60
17495;DHT22;8864;51.970;4.614;2023-02-19T06:14:15;15.40;81.60
17495;DHT22;8864;51.970;4.614;2023-02-19T06:16:45;15.40;81.60
17495;DHT22;8864;51.970;4.614;2023-02-19T06:19:20;15.40;81.60
17495;DHT22;8864;51.970;4.614;2023-02-19T06:21:51;15.40;81.60
17495;DHT22;8864;51.970;4.614;2023-02-19T06:24:18;15.40;81.60
17495;DHT22;8864;51.970;4.614;2023-02-19T06:26:46;15.40;81.70
17495;DHT22;8864;51.970;4.614;2023-02-19T06:29:17;15.40;81.70
17495;DHT22;8864;51.970;4.614;2023-02-19T06:31:46;15.40;81.70
17495;DHT22;8864;51.970;4.614;2023-02-19T06:34:21;15.40;81.70
17495;DHT22;8864;51.970;4.614;2023-02-19T06:36:50;15.40;81.70
17495;DHT22;8864;51.970;4.614;2023-02-19T06:39:20;15.40;81.80
17495;DHT22;8864;51.970;4.614;2023-02-19T06:41:57;15.40;81.80
17495;DHT22;8864;51.970;4.614;2023-02-19T06:44:25;15.40;81.90
17495;DHT22;8864;51.970;4.614;2023-02-19T06:46:54;15.40;81.90
17495;DHT22;8864;51.970;4.614;2023-02-19T06:49:24;15.40;81.80
17495;DHT22;8864;51.970;4.614;2023-02-19T06:51:51;15.40;81.90
17495;DHT22;8864;51.970;4.614;2023-02-19T06:54:18;15.40;82.00
17495;DHT22;8864;51.970;4.614;2023-02-19T06:56:48;15.40;81.90
17495;DHT22;8864;51.970;4.614;2023-02-19T06:59:15;15.40;82.00
17495;DHT22;8864;51.970;4.614;2023-02-19T07:01:44;15.40;82.00
17495;DHT22;8864;51.970;4.614;2023-02-19T07:04:12;15.40;82.00
17495;DHT22;8864;51.970;4.614;2023-02-19T07:06:44;15.40;82.00
17495;DHT22;8864;51.970;4.614;2023-02-19T07:09:12;15.40;82.00
17495;DHT22;8864;51.970;4.614;2023-02-19T07:11:42;15.40;82.10
17495;DHT22;8864;51.970;4.614;2023-02-19T07:14:14;15.40;82.30
17495;DHT22;8864;51.970;4.614;2023-02-19T07:16:48;15.40;82.20
17495;DHT22;8864;51.970;4.614;2023-02-19T07:19:16;15.40;82.10
17495;DHT22;8864;51.970;4.614;2023-02-19T07:21:44;15.40;82.10
17495;DHT22;8864;51.970;4.614;2023-02-19T07:24:14;15.40;82.00
17495;DHT22;8864;51.970;4.614;2023-02-19T07:26:59;15.40;82.00
17495;DHT22;8864;51.970;4.614;2023-02-19T07:29:28;15.40;82.00
17495;DHT22;8864;51.970;4.614;2023-02-19T07:31:56;15.40;82.00
17495;DHT22;8864;51.970;4.614;2023-02-19T07:34:30;15.40;81.90
17495;DHT22;8864;51.970;4.614;2023-02-19T07:37:00;15.40;81.80
17495;DHT22;8864;51.970;4.614;2023-02-19T07:39:32;15.30;81.70
17495;DHT22;8864;51.970;4.614;2023-02-19T07:42:03;15.30;81.70
17495;DHT22;8864;51.970;4.614;2023-02-19T07:44:34;15.30;81.60
17495;DHT22;8864;51.970;4.614;2023-02-19T07:47:02;15.40;81.70
17495;DHT22;8864;51.970;4.614;2023-02-19T07:49:32;15.40;81.60
17495;DHT22;8864;51.970;4.614;2023-02-19T07:51:59;15.30;81.50
17495;DHT22;8864;51.970;4.614;2023-02-19T07:54:34;15.30;81.50
17495;DHT22;8864;51.970;4.614;2023-02-19T07:57:01;15.30;81.40
17495;DHT22;8864;51.970;4.614;2023-02-19T07:59:30;15.40;81.50
17495;DHT22;8864;51.970;4.614;2023-02-19T08:02:14;15.40;81.60
17495;DHT22;8864;51.970;4.614;2023-02-19T08:04:59;15.40;81.40
17495;DHT22;8864;51.970;4.614;2023-02-19T08:07:30;15.40;81.50
17495;DHT22;8864;51.970;4.614;2023-02-19T08:10:04;15.30;81.50
17495;DHT22;8864;51.970;4.614;2023-02-19T08:13:18;15.50;81.50
17495;DHT22;8864;51.970;4.614;2023-02-19T08:15:52;15.40;81.60
17495;DHT22;8864;51.970;4.614;2023-02-19T08:18:24;15.40;81.50
17495;DHT22;8864;51.970;4.614;2023-02-19T08:20:53;15.30;81.50
17495;DHT22;8864;51.970;4.614;2023-02-19T08:23:20;15.40;81.50
17495;DHT22;8864;51.970;4.614;2023-02-19T08:25:59;15.40;81.50
17495;DHT22;8864;51.970;4.614;2023-02-19T08:28:29;15.40;81.50
17495;DHT22;8864;51.970;4.614;2023-02-19T08:31:03;15.40;81.50
17495;DHT22;8864;51.970;4.614;2023-02-19T08:33:33;15.40;81.50
17495;DHT22;8864;51.970;4.614;2023-02-19T08:36:04;15.40;81.40
17495;DHT22;8864;51.970;4.614;2023-02-19T08:38:32;15.40;81.40
17495;DHT22;8864;51.970;4.614;2023-02-19T08:41:03;15.40;81.40
17495;DHT22;8864;51.970;4.614;2023-02-19T08:43:36;15.40;81.30
17495;DHT22;8864;51.970;4.614;2023-02-19T08:46:13;15.40;81.20
17495;DHT22;8864;51.970;4.614;2023-02-19T08:48:44;15.40;81.20
17495;DHT22;8864;51.970;4.614;2023-02-19T08:51:17;15.40;81.20
17495;DHT22;8864;51.970;4.614;2023-02-19T08:53:49;15.40;81.10
17495;DHT22;8864;51.970;4.614;2023-02-19T08:56:16;15.40;81.00
17495;DHT22;8864;51.970;4.614;2023-02-19T08:58:45;15.40;81.00
17495;DHT22;8864;51.970;4.614;2023-02-19T09:01:17;15.40;80.90
17495;DHT22;8864;51.970;4.614;2023-02-19T09:03:46;15.40;80.70
17495;DHT22;8864;51.970;4.614;2023-02-19T09:06:32;15.50;80.70
17495;DHT22;8864;51.970;4.614;2023-02-19T09:09:01;15.40;80.60
17495;DHT22;8864;51.970;4.614;2023-02-19T09:11:31;15.40;80.50
17495;DHT22;8864;51.970;4.614;2023-02-19T09:13:58;15.40;80.50
17495;DHT22;8864;51.970;4.614;2023-02-19T09:16:28;15.40;80.40
17495;DHT22;8864;51.970;4.614;2023-02-19T09:19:02;15.40;80.40
17495;DHT22;8864;51.970;4.614;2023-02-19T09:21:29;15.50;80.50
17495;DHT22;8864;51.970;4.614;2023-02-19T09:23:58;15.40;80.30
17495;DHT22;8864;51.970;4.614;2023-02-19T09:26:28;15.50;80.30
17495;DHT22;8864;51.970;4.614;2023-02-19T09:28:58;15.50;80.30
17495;DHT22;8864;51.970;4.614;2023-02-19T09:31:29;15.50;80.10
17495;DHT22;8864;51.970;4.614;2023-02-19T09:33:57;15.50;80.10
17495;DHT22;8864;51.970;4.614;2023-02-19T09:36:28;15.50;80.00
17495;DHT22;8864;51.970;4.614;2023-02-19T09:39:08;15.50;79.90
17495;DHT22;8864;51.970;4.614;2023-02-19T09:41:54;15.50;79.80
17495;DHT22;8864;51.970;4.614;2023-02-19T09:44:33;15.50;79.80
17495;DHT22;8864;51.970;4.614;2023-02-19T09:47:05;15.50;79.70
17495;DHT22;8864;51.970;4.614;2023-02-19T09:49:42;15.50;79.60
17495;DHT22;8864;51.970;4.614;2023-02-19T09:52:24;15.50;79.60
17495;DHT22;8864;51.970;4.614;2023-02-19T09:55:04;15.60;79.60
17495;DHT22;8864;51.970;4.614;2023-02-19T09:57:44;15.60;79.60
17495;DHT22;8864;51.970;4.614;2023-02-19T10:00:21;15.60;79.50
17495;DHT22;8864;51.970;4.614;2023-02-19T10:02:57;15.60;79.40
17495;DHT22;8864;51.970;4.614;2023-02-19T10:05:27;15.60;79.30
17495;DHT22;8864;51.970;4.614;2023-02-19T10:07:57;15.60;79.20
17495;DHT22;8864;51.970;4.614;2023-02-19T10:10:32;15.60;79.20
17495;DHT22;8864;51.970;4.614;2023-02-19T10:13:12;15.60;79.10
17495;DHT22;8864;51.970;4.614;2023-02-19T10:15:49;15.60;79.00
17495;DHT22;8864;51.970;4.614;2023-02-19T10:18:19;15.60;78.90
17495;DHT22;8864;51.970;4.614;2023-02-19T10:20:51;15.60;78.90
17495;DHT22;8864;51.970;4.614;2023-02-19T10:23:20;15.60;78.70
17495;DHT22;8864;51.970;4.614;2023-02-19T10:25:50;15.60;78.70
17495;DHT22;8864;51.970;4.614;2023-02-19T10:28:21;15.60;78.60
17495;DHT22;8864;51.970;4.614;2023-02-19T10:30:58;15.60;78.60
17495;DHT22;8864;51.970;4.614;2023-02-19T10:33:27;15.60;78.40
17495;DHT22;8864;51.970;4.614;2023-02-19T10:35:59;15.60;78.40
17495;DHT22;8864;51.970;4.614;2023-02-19T10:38:31;15.60;78.40
17495;DHT22;8864;51.970;4.614;2023-02-19T10:41:05;15.60;78.40
17495;DHT22;8864;51.970;4.614;2023-02-19T10:43:35;15.60;78.60
17495;DHT22;8864;51.970;4.614;2023-02-19T10:46:15;15.60;78.60
17495;DHT22;8864;51.970;4.614;2023-02-19T10:48:58;15.60;79.20
17495;DHT22;8864;51.970;4.614;2023-02-19T10:51:32;15.60;79.20
17495;DHT22;8864;51.970;4.614;2023-02-19T10:54:23;15.60;79.00
17495;DHT22;8864;51.970;4.614;2023-02-19T10:57:23;15.60;79.10
17495;DHT22;8864;51.970;4.614;2023-02-19T11:00:01;15.60;79.10
17495;DHT22;8864;51.970;4.614;2023-02-19T11:02:48;15.60;79.20
17495;DHT22;8864;51.970;4.614;2023-02-19T11:05:18;15.60;79.20
17495;DHT22;8864;51.970;4.614;2023-02-19T11:07:47;15.60;79.20
17495;DHT22;8864;51.970;4.614;2023-02-19T11:10:37;15.60;79.20
17495;DHT22;8864;51.970;4.614;2023-02-19T11:13:12;15.60;79.20
17495;DHT22;8864;51.970;4.614;2023-02-19T11:15:40;15.60;79.10
17495;DHT22;8864;51.970;4.614;2023-02-19T11:18:28;15.60;79.10
17495;DHT22;8864;51.970;4.614;2023-02-19T11:21:00;15.60;79.10
17495;DHT22;8864;51.970;4.614;2023-02-19T11:23:30;15.70;79.20
17495;DHT22;8864;51.970;4.614;2023-02-19T11:26:02;15.60;79.00
17495;DHT22;8864;51.970;4.614;2023-02-19T11:28:32;15.70;79.00
17495;DHT22;8864;51.970;4.614;2023-02-19T11:31:21;15.70;79.00
17495;DHT22;8864;51.970;4.614;2023-02-19T11:36:40;15.70;79.00
17495;DHT22;8864;51.970;4.614;2023-02-19T11:39:25;15.80;79.20
17495;DHT22;8864;51.970;4.614;2023-02-19T11:42:20;15.70;79.10
17495;DHT22;8864;51.970;4.614;2023-02-19T11:45:09;15.70;79.20
17495;DHT22;8864;51.970;4.614;2023-02-19T11:48:02;15.70;79.20
17495;DHT22;8864;51.970;4.614;2023-02-19T11:50:45;15.70;79.20
17495;DHT22;8864;51.970;4.614;2023-02-19T11:53:21;15.70;79.20
17495;DHT22;8864;51.970;4.614;2023-02-19T11:56:08;15.70;79.30
17495;DHT22;8864;51.970;4.614;2023-02-19T11:58:59;15.70;79.30
17495;DHT22;8864;51.970;4.614;2023-02-19T12:05:10;15.80;79.40
17495;DHT22;8864;51.970;4.614;2023-02-19T12:11:18;15.80;79.30
17495;DHT22;8864;51.970;4.614;2023-02-19T12:14:08;15.70;79.50
17495;DHT22;8864;51.970;4.614;2023-02-19T12:16:42;15.80;80.10
17495;DHT22;8864;51.970;4.614;2023-02-19T12:19:35;15.70;80.30
17495;DHT22;8864;51.970;4.614;2023-02-19T12:22:27;15.70;80.60
17495;DHT22;8864;51.970;4.614;2023-02-19T12:25:19;15.70;80.80
17495;DHT22;8864;51.970;4.614;2023-02-19T12:28:05;15.70;81.00
17495;DHT22;8864;51.970;4.614;2023-02-19T12:30:57;15.70;81.20
17495;DHT22;8864;51.970;4.614;2023-02-19T12:36:41;15.70;81.40
17495;DHT22;8864;51.970;4.614;2023-02-19T12:39:15;15.80;81.50
17495;DHT22;8864;51.970;4.614;2023-02-19T12:41:48;15.80;82.40
17495;DHT22;8864;51.970;4.614;2023-02-19T12:44:23;15.80;81.60
17495;DHT22;8864;51.970;4.614;2023-02-19T12:47:01;15.80;81.70
17495;DHT22;8864;51.970;4.614;2023-02-19T12:49:37;15.80;81.80
17495;DHT22;8864;51.970;4.614;2023-02-19T12:52:11;15.80;81.90
17495;DHT22;8864;51.970;4.614;2023-02-19T12:54:45;15.80;82.00
17495;DHT22;8864;51.970;4.614;2023-02-19T12:57:18;15.80;82.10
17495;DHT22;8864;51.970;4.614;2023-02-19T13:00:00;15.80;82.10
17495;DHT22;8864;51.970;4.614;2023-02-19T13:02:39;15.80;82.20
17495;DHT22;8864;51.970;4.614;2023-02-19T13:05:22;15.80;82.30
17495;DHT22;8864;51.970;4.614;2023-02-19T13:07:58;15.80;82.30
17495;DHT22;8864;51.970;4.614;2023-02-19T13:10:31;15.70;82.30
17495;DHT22;8864;51.970;4.614;2023-02-19T13:13:05;15.80;82.40
17495;DHT22;8864;51.970;4.614;2023-02-19T13:15:42;15.80;82.60
17495;DHT22;8864;51.970;4.614;2023-02-19T13:18:20;15.80;82.50
17495;DHT22;8864;51.970;4.614;2023-02-19T13:21:01;15.80;82.60
17495;DHT22;8864;51.970;4.614;2023-02-19T13:23:32;15.80;82.60
17495;DHT22;8864;51.970;4.614;2023-02-19T13:26:50;15.80;82.50
17495;DHT22;8864;51.970;4.614;2023-02-19T13:29:37;15.90;82.60
17495;DHT22;8864;51.970;4.614;2023-02-19T13:32:47;15.90;82.60
17495;DHT22;8864;51.970;4.614;2023-02-19T13:35:50;15.90;82.90
17495;DHT22;8864;51.970;4.614;2023-02-19T13:38:19;15.80;82.60
17495;DHT22;8864;51.970;4.614;2023-02-19T13:40:54;15.80;82.60
17495;DHT22;8864;51.970;4.614;2023-02-19T13:43:25;15.90;82.60
17495;DHT22;8864;51.970;4.614;2023-02-19T13:45:59;15.90;82.50
17495;DHT22;8864;51.970;4.614;2023-02-19T13:48:31;15.90;82.50
17495;DHT22;8864;51.970;4.614;2023-02-19T13:54:31;15.90;82.40
17495;DHT22;8864;51.970;4.614;2023-02-19T13:57:53;15.90;82.40
17495;DHT22;8864;51.970;4.614;2023-02-19T14:00:52;16.00;82.60
17495;DHT22;8864;51.970;4.614;2023-02-19T14:03:27;15.90;82.50
17495;DHT22;8864;51.970;4.614;2023-02-19T14:05:59;15.90;82.60
17495;DHT22;8864;51.970;4.614;2023-02-19T14:12:18;15.90;82.60
17495;DHT22;8864;51.970;4.614;2023-02-19T14:14:48;15.90;82.60
17495;DHT22;8864;51.970;4.614;2023-02-19T14:17:36;15.90;82.60
17495;DHT22;8864;51.970;4.614;2023-02-19T14:20:39;15.90;82.60
17495;DHT22;8864;51.970;4.614;2023-02-19T14:23:16;15.90;82.50
17495;DHT22;8864;51.970;4.614;2023-02-19T14:25:55;15.90;82.40
17495;DHT22;8864;51.970;4.614;2023-02-19T14:28:34;15.90;83.20
17495;DHT22;8864;51.970;4.614;2023-02-19T14:31:13;15.90;83.10
17495;DHT22;8864;51.970;4.614;2023-02-19T14:33:45;15.90;82.70
17495;DHT22;8864;51.970;4.614;2023-02-19T14:36:19;15.90;82.60
17495;DHT22;8864;51.970;4.614;2023-02-19T14:38:51;15.90;82.60
17495;DHT22;8864;51.970;4.614;2023-02-19T14:41:21;15.90;82.60
17495;DHT22;8864;51.970;4.614;2023-02-19T14:44:00;16.00;82.40
17495;DHT22;8864;51.970;4.614;2023-02-19T14:46:30;16.00;82.30
17495;DHT22;8864;51.970;4.614;2023-02-19T14:49:04;16.00;82.20
17495;DHT22;8864;51.970;4.614;2023-02-19T14:51:41;16.00;82.10
17495;DHT22;8864;51.970;4.614;2023-02-19T14:54:32;16.00;82.10
17495;DHT22;8864;51.970;4.614;2023-02-19T14:57:04;16.00;82.10
17495;DHT22;8864;51.970;4.614;2023-02-19T14:59:36;16.00;82.10
17495;DHT22;8864;51.970;4.614;2023-02-19T15:02:13;16.00;82.10
17495;DHT22;8864;51.970;4.614;2023-02-19T15:04:45;16.00;82.10
17495;DHT22;8864;51.970;4.614;2023-02-19T15:07:17;16.00;82.90
17495;DHT22;8864;51.970;4.614;2023-02-19T15:09:47;15.90;82.10
17495;DHT22;8864;51.970;4.614;2023-02-19T15:12:17;15.90;82.00
17495;DHT22;8864;51.970;4.614;2023-02-19T15:14:48;15.90;82.00
17495;DHT22;8864;51.970;4.614;2023-02-19T15:17:26;16.00;82.10
17495;DHT22;8864;51.970;4.614;2023-02-19T15:19:54;16.00;82.10
17495;DHT22;8864;51.970;4.614;2023-02-19T15:22:27;16.00;82.10
17495;DHT22;8864;51.970;4.614;2023-02-19T15:24:59;16.00;82.00
17495;DHT22;8864;51.970;4.614;2023-02-19T15:27:27;16.00;81.80
17495;DHT22;8864;51.970;4.614;2023-02-19T15:29:59;16.00;81.70
17495;DHT22;8864;51.970;4.614;2023-02-19T15:32:30;16.00;81.50
17495;DHT22;8864;51.970;4.614;2023-02-19T15:34:59;16.00;81.60
17495;DHT22;8864;51.970;4.614;2023-02-19T15:37:35;16.00;81.80
17495;DHT22;8864;51.970;4.614;2023-02-19T15:40:11;16.00;81.60
17495;DHT22;8864;51.970;4.614;2023-02-19T15:42:44;16.00;81.40
17495;DHT22;8864;51.970;4.614;2023-02-19T15:45:22;16.00;83.30
17495;DHT22;8864;51.970;4.614;2023-02-19T15:48:02;16.00;85.60
17495;DHT22;8864;51.970;4.614;2023-02-19T15:50:45;16.00;84.10
17495;DHT22;8864;51.970;4.614;2023-02-19T15:53:15;16.00;83.20
17495;DHT22;8864;51.970;4.614;2023-02-19T15:55:45;16.00;82.80
17495;DHT22;8864;51.970;4.614;2023-02-19T15:58:19;16.00;82.90
17495;DHT22;8864;51.970;4.614;2023-02-19T16:00:52;16.00;82.70
17495;DHT22;8864;51.970;4.614;2023-02-19T16:03:24;16.00;82.50
17495;DHT22;8864;51.970;4.614;2023-02-19T16:05:59;16.00;82.30
17495;DHT22;8864;51.970;4.614;2023-02-19T16:08:31;16.00;82.10
17495;DHT22;8864;51.970;4.614;2023-02-19T16:11:01;16.00;82.10
17495;DHT22;8864;51.970;4.614;2023-02-19T16:13:31;16.00;82.10
17495;DHT22;8864;51.970;4.614;2023-02-19T16:16:05;16.00;82.00
17495;DHT22;8864;51.970;4.614;2023-02-19T16:18:46;15.90;81.90
17495;DHT22;8864;51.970;4.614;2023-02-19T16:21:16;16.00;81.90
17495;DHT22;8864;51.970;4.614;2023-02-19T16:23:48;15.90;82.00
17495;DHT22;8864;51.970;4.614;2023-02-19T16:26:17;15.90;82.00
17495;DHT22;8864;51.970;4.614;2023-02-19T16:28:51;15.90;82.00
17495;DHT22;8864;51.970;4.614;2023-02-19T16:31:21;15.90;82.00
17495;DHT22;8864;51.970;4.614;2023-02-19T16:33:50;15.80;81.90
17495;DHT22;8864;51.970;4.614;2023-02-19T16:36:20;15.90;82.00
17495;DHT22;8864;51.970;4.614;2023-02-19T16:39:21;15.80;82.30
17495;DHT22;8864;51.970;4.614;2023-02-19T16:42:10;15.80;82.60
17495;DHT22;8864;51.970;4.614;2023-02-19T16:44:46;15.80;82.90
17495;DHT22;8864;51.970;4.614;2023-02-19T16:47:20;15.80;82.70
17495;DHT22;8864;51.970;4.614;2023-02-19T16:49:52;15.90;82.80
17495;DHT22;8864;51.970;4.614;2023-02-19T16:52:24;15.80;83.00
17495;DHT22;8864;51.970;4.614;2023-02-19T16:54:55;15.80;82.70
17495;DHT22;8864;51.970;4.614;2023-02-19T16:57:25;15.80;82.50